Terminal Aerodrome Forecast
Issued by NWS

Current Version | Previous Version | Text Only | Print | Product List | Glossary Off
Versions: 1 2 3 4 5 6 7 8 9 10 11 12 13 14 15 16 17 18 19 20 21 22 23

903
FTUS41 KILN 131139
TAFLUK
TAF
KLUK 131139Z 1312/1412 20006KT P6SM BKN080
     FM131600 20014G22KT P6SM BKN120
     FM132200 22015G23KT P6SM OVC080
     FM140100 25017G27KT P6SM OVC045
     FM140800 30011KT P6SM OVC028=

USA.gov is the U.S. government's official web portal to all federal, state and local government web resources and services.